createdAt,value
2024-02-26T00:00:26.438Z,80.44
2024-02-26T00:02:52.943Z,80.90
2024-02-26T00:05:19.382Z,80.76
2024-02-26T00:07:46.235Z,80.51
2024-02-26T00:10:12.812Z,80.30
2024-02-26T00:12:40.420Z,81.02
2024-02-26T00:15:11.544Z,80.75
2024-02-26T00:17:38.598Z,80.77
2024-02-26T00:20:09.452Z,80.71
2024-02-26T00:22:36.372Z,81.44
2024-02-26T00:25:02.957Z,80.87
2024-02-26T00:27:29.513Z,81.34
2024-02-26T00:29:55.990Z,81.43
2024-02-26T00:32:22.524Z,81.34
2024-02-26T00:34:49.172Z,81.17
2024-02-26T00:37:15.639Z,80.91
2024-02-26T00:39:42.152Z,81.20
2024-02-26T00:42:09.191Z,81.57
2024-02-26T00:44:35.914Z,81.28
2024-02-26T00:47:03.074Z,81.54
2024-02-26T00:49:29.641Z,81.20
2024-02-26T00:51:56.833Z,81.87
2024-02-26T00:54:23.340Z,81.26
2024-02-26T00:56:49.863Z,81.85
2024-02-26T00:59:16.394Z,81.24
2024-02-26T01:01:42.856Z,81.63
2024-02-26T01:04:09.409Z,81.65
2024-02-26T01:06:36.218Z,81.24
2024-02-26T01:09:02.845Z,81.76
2024-02-26T01:11:29.414Z,81.63
2024-02-26T01:13:57.784Z,81.63
2024-02-26T01:16:24.819Z,81.32
2024-02-26T01:18:51.380Z,81.40
2024-02-26T01:21:17.986Z,81.46
2024-02-26T01:23:44.579Z,81.46
2024-02-26T01:26:11.863Z,81.54
2024-02-26T01:28:38.365Z,81.76
2024-02-26T01:31:07.838Z,81.60
2024-02-26T01:33:34.623Z,81.30
2024-02-26T01:36:02.061Z,81.20
2024-02-26T01:38:29.006Z,81.49
2024-02-26T01:40:55.689Z,81.26
2024-02-26T01:43:22.200Z,81.13
2024-02-26T01:45:48.661Z,82.02
2024-02-26T01:48:15.340Z,81.75
2024-02-26T01:50:42.344Z,81.42
2024-02-26T01:53:10.351Z,81.21
2024-02-26T01:55:37.272Z,81.57
2024-02-26T01:58:03.964Z,80.91
2024-02-26T02:00:30.639Z,81.08
2024-02-26T02:02:57.559Z,81.17
2024-02-26T02:05:24.488Z,80.95
2024-02-26T02:07:52.409Z,81.46
2024-02-26T02:10:23.862Z,80.86
2024-02-26T02:12:50.620Z,81.47
2024-02-26T02:15:17.173Z,81.33
2024-02-26T02:17:44.023Z,81.32
2024-02-26T02:20:16.179Z,80.79
2024-02-26T02:22:42.720Z,80.57
2024-02-26T02:25:09.359Z,80.76
2024-02-26T02:27:35.950Z,80.88
2024-02-26T02:30:03.649Z,80.81
2024-02-26T02:32:30.601Z,80.82
2024-02-26T02:34:57.893Z,80.40
2024-02-26T02:37:24.392Z,80.52
2024-02-26T02:39:50.843Z,80.07
2024-02-26T02:42:17.330Z,80.43
2024-02-26T02:44:45.713Z,80.05
2024-02-26T02:47:12.382Z,80.17
2024-02-26T02:49:39.024Z,80.00
2024-02-26T02:52:05.750Z,79.62
2024-02-26T02:54:32.456Z,79.61
2024-02-26T02:56:58.947Z,79.70
2024-02-26T02:59:26.559Z,79.57
2024-02-26T03:01:53.751Z,79.79
2024-02-26T03:04:20.250Z,79.78
2024-02-26T03:06:46.849Z,79.51
2024-02-26T03:09:13.504Z,79.57
2024-02-26T03:11:41.050Z,79.70
2024-02-26T03:14:07.764Z,79.77
2024-02-26T03:16:34.815Z,80.28
2024-02-26T03:19:01.385Z,79.96
2024-02-26T03:21:28.485Z,79.60
2024-02-26T03:23:55.017Z,79.16
2024-02-26T03:26:22.521Z,79.72
2024-02-26T03:28:49.038Z,79.72
2024-02-26T03:31:15.954Z,79.32
2024-02-26T03:33:42.593Z,79.82
2024-02-26T03:36:09.482Z,80.00
2024-02-26T03:38:36.045Z,79.99
2024-02-26T03:41:02.507Z,80.11
2024-02-26T03:43:28.994Z,80.36
2024-02-26T03:45:55.507Z,80.25
2024-02-26T03:48:22.096Z,80.75
2024-02-26T03:50:48.651Z,80.54
2024-02-26T03:53:15.207Z,80.14
2024-02-26T03:55:43.005Z,80.36
2024-02-26T03:58:10.141Z,80.01
2024-02-26T04:00:37.015Z,80.21
2024-02-26T04:03:03.738Z,80.77
2024-02-26T04:05:30.196Z,80.65
2024-02-26T04:07:56.776Z,80.88
2024-02-26T04:10:23.293Z,80.45
2024-02-26T04:12:49.782Z,80.09
2024-02-26T04:15:16.268Z,80.27
2024-02-26T04:17:43.285Z,80.76
2024-02-26T04:20:15.256Z,80.56
2024-02-26T04:22:41.723Z,80.54
2024-02-26T04:25:08.643Z,80.48
2024-02-26T04:27:35.305Z,79.91
2024-02-26T04:30:01.885Z,80.10
2024-02-26T04:32:29.099Z,80.44
2024-02-26T04:34:55.603Z,80.48
2024-02-26T04:37:22.065Z,79.92
2024-02-26T04:39:51.172Z,80.02
2024-02-26T04:42:17.984Z,80.21
2024-02-26T04:44:44.574Z,80.41
2024-02-26T04:47:11.759Z,80.15
2024-02-26T04:49:38.331Z,80.43
2024-02-26T04:52:05.292Z,80.20
2024-02-26T04:54:31.694Z,80.15
2024-02-26T04:56:58.213Z,79.82
2024-02-26T04:59:24.680Z,79.74
2024-02-26T05:01:53.722Z,79.74
2024-02-26T05:04:20.426Z,79.77
2024-02-26T05:06:47.067Z,80.02
2024-02-26T05:09:13.711Z,79.42
2024-02-26T05:11:42.148Z,80.26
2024-02-26T05:14:10.026Z,79.85
2024-02-26T05:16:36.461Z,79.86
2024-02-26T05:19:03.943Z,79.83
2024-02-26T05:21:30.634Z,80.38
2024-02-26T05:23:57.237Z,80.40
2024-02-26T05:26:24.137Z,80.17
2024-02-26T05:28:51.428Z,80.61
2024-02-26T05:31:19.187Z,79.92
2024-02-26T05:33:46.304Z,80.38
2024-02-26T05:36:23.261Z,80.07
2024-02-26T05:38:50.131Z,80.41
2024-02-26T05:41:17.821Z,79.73
2024-02-26T05:43:44.442Z,79.86
2024-02-26T05:46:10.969Z,80.44
2024-02-26T05:48:37.557Z,80.29
2024-02-26T05:51:05.582Z,80.47
2024-02-26T05:53:32.060Z,80.17
2024-02-26T05:55:58.525Z,80.47
2024-02-26T05:58:25.050Z,80.44
2024-02-26T06:00:51.687Z,80.77
2024-02-26T06:03:18.327Z,80.57
2024-02-26T06:05:45.089Z,80.71
2024-02-26T06:08:11.634Z,80.74
2024-02-26T06:10:38.211Z,80.63
2024-02-26T06:13:04.873Z,80.24
2024-02-26T06:15:31.594Z,80.91
2024-02-26T06:17:58.176Z,80.88
2024-02-26T06:20:24.892Z,80.01
2024-02-26T06:22:52.297Z,80.46
2024-02-26T06:25:18.803Z,80.86
2024-02-26T06:27:45.246Z,81.04
2024-02-26T06:30:12.436Z,80.20
2024-02-26T06:32:39.308Z,80.29
2024-02-26T06:35:09.086Z,81.06
2024-02-26T06:37:36.132Z,81.02
2024-02-26T06:40:05.157Z,80.76
2024-02-26T06:42:31.838Z,81.02
2024-02-26T06:44:58.419Z,80.81
2024-02-26T06:47:24.895Z,81.10
2024-02-26T06:49:51.470Z,81.25
2024-02-26T06:52:17.939Z,81.35
2024-02-26T06:54:44.424Z,81.45
2024-02-26T06:57:10.908Z,81.17
2024-02-26T06:59:37.512Z,81.52
2024-02-26T07:02:04.192Z,81.67
2024-02-26T07:04:32.441Z,81.50
2024-02-26T07:06:58.981Z,81.37
2024-02-26T07:09:26.295Z,81.46
2024-02-26T07:11:52.899Z,81.41
2024-02-26T07:14:19.380Z,81.53
2024-02-26T07:16:45.846Z,81.14
2024-02-26T07:19:12.326Z,81.26
2024-02-26T07:21:38.808Z,81.80
2024-02-26T07:24:05.572Z,81.48
2024-02-26T07:26:32.126Z,81.66
2024-02-26T07:28:59.108Z,81.17
2024-02-26T07:31:25.518Z,81.65
2024-02-26T07:33:52.587Z,81.28
2024-02-26T07:36:19.242Z,82.00
2024-02-26T07:38:47.022Z,81.67
2024-02-26T07:41:14.939Z,81.78
2024-02-26T07:43:42.162Z,82.09
2024-02-26T07:46:08.778Z,82.32
2024-02-26T07:48:35.999Z,81.76
2024-02-26T07:51:04.422Z,81.76
2024-02-26T07:53:31.455Z,81.99
2024-02-26T07:55:58.134Z,82.15
2024-02-26T07:58:24.874Z,82.01
2024-02-26T08:00:51.761Z,82.35
2024-02-26T08:03:18.451Z,82.49
2024-02-26T08:05:45.151Z,82.83
2024-02-26T08:08:11.890Z,82.95
2024-02-26T08:10:38.478Z,83.27
2024-02-26T08:13:07.731Z,83.33
2024-02-26T08:15:35.621Z,83.13
2024-02-26T08:18:04.660Z,82.87
2024-02-26T08:20:31.983Z,83.13
2024-02-26T08:22:58.525Z,82.77
2024-02-26T08:25:25.728Z,82.96
2024-02-26T08:27:52.224Z,82.81
2024-02-26T08:30:18.954Z,82.92
2024-02-26T08:32:52.053Z,82.84
2024-02-26T08:35:20.050Z,82.42
2024-02-26T08:37:47.656Z,82.68
2024-02-26T08:40:15.170Z,82.64
2024-02-26T08:42:41.765Z,82.83
2024-02-26T08:45:09.441Z,82.29
2024-02-26T08:47:36.105Z,82.30
2024-02-26T08:50:03.122Z,81.85
2024-02-26T08:52:29.594Z,81.71
2024-02-26T08:54:56.068Z,81.78
2024-02-26T08:57:22.603Z,81.97
2024-02-26T08:59:49.141Z,82.05
2024-02-26T09:02:15.706Z,82.29
2024-02-26T09:04:42.310Z,82.28
2024-02-26T09:07:08.888Z,82.01
2024-02-26T09:09:35.573Z,82.67
2024-02-26T09:12:02.196Z,82.13
2024-02-26T09:14:28.885Z,82.38
2024-02-26T09:16:55.576Z,82.11
2024-02-26T09:19:22.118Z,82.58
2024-02-26T09:21:48.707Z,82.67
2024-02-26T09:24:15.973Z,82.89
2024-02-26T09:26:42.660Z,83.03
2024-02-26T09:29:09.667Z,83.65
2024-02-26T09:31:36.278Z,83.11
2024-02-26T09:34:03.412Z,83.13
2024-02-26T09:36:30.145Z,83.23
2024-02-26T09:39:00.981Z,83.20
2024-02-26T09:41:32.023Z,83.63
2024-02-26T09:44:00.517Z,83.06
2024-02-26T09:46:27.234Z,83.33
2024-02-26T09:48:54.569Z,83.55
2024-02-26T09:51:26.073Z,83.76
2024-02-26T09:53:54.056Z,83.55
2024-02-26T09:56:21.367Z,83.38
2024-02-26T09:58:50.311Z,83.97
2024-02-26T10:01:20.939Z,83.93
2024-02-26T10:03:56.167Z,84.22
2024-02-26T10:06:22.895Z,84.39
2024-02-26T10:08:49.666Z,83.97
2024-02-26T10:11:16.992Z,84.49
2024-02-26T10:13:43.494Z,84.32
2024-02-26T10:16:10.913Z,84.23
2024-02-26T10:18:58.842Z,84.64
2024-02-26T10:21:27.094Z,84.45
2024-02-26T10:23:53.904Z,84.80
2024-02-26T10:26:21.214Z,85.02
2024-02-26T10:28:51.248Z,85.03
2024-02-26T10:31:20.513Z,84.73
2024-02-26T10:33:47.443Z,85.37
2024-02-26T10:36:14.353Z,85.36
2024-02-26T10:38:40.959Z,85.23
2024-02-26T10:41:08.023Z,85.20
2024-02-26T10:43:34.530Z,85.01
2024-02-26T10:46:01.079Z,85.33
2024-02-26T10:48:27.838Z,84.80
2024-02-26T10:50:54.664Z,84.78
2024-02-26T10:53:22.392Z,85.15
2024-02-26T10:56:02.929Z,85.49
2024-02-26T10:58:30.094Z,84.79
2024-02-26T11:00:58.070Z,84.75
2024-02-26T11:03:26.095Z,85.02
2024-02-26T11:05:53.869Z,85.56
2024-02-26T11:08:25.819Z,84.55
2024-02-26T11:10:55.000Z,85.12
2024-02-26T11:13:22.832Z,84.97
2024-02-26T11:15:51.455Z,84.97
2024-02-26T11:18:20.648Z,84.92
2024-02-26T11:20:49.328Z,84.98
2024-02-26T11:23:16.486Z,84.56
2024-02-26T11:25:43.612Z,85.45
2024-02-26T11:28:13.851Z,85.03
2024-02-26T11:30:45.707Z,84.71
2024-02-26T11:33:13.736Z,85.04
2024-02-26T11:35:40.842Z,85.04
2024-02-26T11:38:08.646Z,85.28
2024-02-26T11:40:40.883Z,84.91
2024-02-26T11:43:07.443Z,85.32
2024-02-26T11:45:40.114Z,85.16
2024-02-26T11:48:14.138Z,85.55
2024-02-26T11:50:42.438Z,85.66
2024-02-26T11:53:27.232Z,85.63
2024-02-26T11:56:18.383Z,85.45
2024-02-26T11:58:45.179Z,85.95
2024-02-26T12:01:38.511Z,85.35
2024-02-26T12:04:12.787Z,85.74
2024-02-26T12:06:53.920Z,85.69
2024-02-26T12:09:40.435Z,85.66
2024-02-26T12:12:09.641Z,85.63
2024-02-26T12:14:52.746Z,85.84
2024-02-26T12:17:24.641Z,85.95
2024-02-26T12:19:52.853Z,84.94
2024-02-26T12:22:20.554Z,84.91
2024-02-26T12:24:47.108Z,84.96
2024-02-26T12:27:16.214Z,85.42
2024-02-26T12:29:42.885Z,85.80
2024-02-26T12:32:09.441Z,85.73
2024-02-26T12:34:36.697Z,85.14
2024-02-26T12:37:03.433Z,85.20
2024-02-26T12:39:31.523Z,84.99
2024-02-26T12:42:00.614Z,85.59
2024-02-26T12:44:27.817Z,84.97
2024-02-26T12:47:04.953Z,84.79
2024-02-26T12:49:32.591Z,84.11
2024-02-26T12:52:02.836Z,84.22
2024-02-26T12:54:32.878Z,84.81
2024-02-26T12:57:01.866Z,83.87
2024-02-26T12:59:29.064Z,83.75
2024-02-26T13:01:55.929Z,83.66
2024-02-26T13:04:22.527Z,83.87
2024-02-26T13:06:49.191Z,83.91
2024-02-26T13:09:16.250Z,83.81
2024-02-26T13:11:42.779Z,83.80
2024-02-26T13:14:09.958Z,83.53
2024-02-26T13:16:36.709Z,83.05
2024-02-26T13:19:11.437Z,83.15
2024-02-26T13:21:38.090Z,82.95
2024-02-26T13:24:05.807Z,83.67
2024-02-26T13:26:32.297Z,83.38
2024-02-26T13:29:04.646Z,83.09
2024-02-26T13:31:31.362Z,83.56
2024-02-26T13:33:58.114Z,83.51
2024-02-26T13:36:25.417Z,83.08
2024-02-26T13:38:54.250Z,83.28
2024-02-26T13:41:20.964Z,83.09
2024-02-26T13:43:47.872Z,83.32
2024-02-26T13:46:16.184Z,83.17
2024-02-26T13:48:43.429Z,82.00
2024-02-26T13:51:10.428Z,82.93
2024-02-26T13:53:36.868Z,82.21
2024-02-26T13:56:06.610Z,82.10
2024-02-26T13:58:33.118Z,82.13
2024-02-26T14:01:00.891Z,82.53
2024-02-26T14:03:27.648Z,81.75
2024-02-26T14:05:54.464Z,82.19
2024-02-26T14:08:21.861Z,81.56
2024-02-26T14:10:48.434Z,81.20
2024-02-26T14:13:14.986Z,81.62
2024-02-26T14:15:41.571Z,81.55
2024-02-26T14:18:09.072Z,80.66
2024-02-26T14:20:36.046Z,80.39
2024-02-26T14:23:02.473Z,80.34
2024-02-26T14:25:31.283Z,80.86
2024-02-26T14:27:59.396Z,80.09
2024-02-26T14:30:27.256Z,80.46
2024-02-26T14:32:53.972Z,80.06
2024-02-26T14:35:20.665Z,79.86
2024-02-26T14:37:49.004Z,79.51
2024-02-26T14:40:16.861Z,79.95
2024-02-26T14:42:43.798Z,80.40
2024-02-26T14:45:10.778Z,80.81
2024-02-26T14:47:37.433Z,80.35
2024-02-26T14:50:05.316Z,80.00
2024-02-26T14:52:32.003Z,80.37
2024-02-26T14:54:58.557Z,79.74
2024-02-26T14:57:26.064Z,79.94
2024-02-26T14:59:52.752Z,79.46
2024-02-26T15:02:19.409Z,79.45
2024-02-26T15:04:46.212Z,79.54
2024-02-26T15:07:16.321Z,79.41
2024-02-26T15:09:43.371Z,79.22
2024-02-26T15:12:10.500Z,79.57
2024-02-26T15:14:37.023Z,78.63
2024-02-26T15:17:04.406Z,78.51
2024-02-26T15:19:31.145Z,79.36
2024-02-26T15:21:57.721Z,78.73
2024-02-26T15:24:24.268Z,78.44
2024-02-26T15:26:50.750Z,78.69
2024-02-26T15:29:17.204Z,78.44
2024-02-26T15:31:43.692Z,78.81
2024-02-26T15:34:10.782Z,78.57
2024-02-26T15:36:37.539Z,78.60
2024-02-26T15:39:04.612Z,78.62
2024-02-26T15:41:31.587Z,77.79
2024-02-26T15:44:00.299Z,78.20
2024-02-26T15:46:27.074Z,78.33
2024-02-26T15:48:53.694Z,78.34
2024-02-26T15:51:27.249Z,78.61
2024-02-26T15:53:54.667Z,78.41
2024-02-26T15:56:25.131Z,78.80
2024-02-26T15:58:52.542Z,78.73
2024-02-26T16:01:24.164Z,78.17
2024-02-26T16:03:52.296Z,78.06
2024-02-26T16:06:30.261Z,78.58
2024-02-26T16:08:56.970Z,78.51
2024-02-26T16:11:23.527Z,78.03
2024-02-26T16:13:54.502Z,77.72
2024-02-26T16:16:27.552Z,78.02
2024-02-26T16:19:06.718Z,78.41
2024-02-26T16:21:33.464Z,78.38
2024-02-26T16:24:00.603Z,78.38
2024-02-26T16:26:27.174Z,78.62
2024-02-26T16:28:53.576Z,78.80
2024-02-26T16:31:20.101Z,78.08
2024-02-26T16:33:46.845Z,78.38
2024-02-26T16:36:13.701Z,77.90
2024-02-26T16:38:40.662Z,78.54
2024-02-26T16:41:07.220Z,78.38
2024-02-26T16:43:36.087Z,78.36
2024-02-26T16:46:02.842Z,78.31
2024-02-26T16:48:35.312Z,78.39
2024-02-26T16:51:03.684Z,78.34
2024-02-26T16:53:30.442Z,78.60
2024-02-26T16:55:58.684Z,78.82
2024-02-26T16:58:26.050Z,78.84
2024-02-26T17:00:52.737Z,78.50
2024-02-26T17:03:19.334Z,78.77
2024-02-26T17:05:46.130Z,78.77
2024-02-26T17:08:13.063Z,78.82
2024-02-26T17:10:39.635Z,78.60
2024-02-26T17:13:06.118Z,78.67
2024-02-26T17:15:32.860Z,78.91
2024-02-26T17:17:59.624Z,79.11
2024-02-26T17:20:26.136Z,79.18
2024-02-26T17:22:52.727Z,79.06
2024-02-26T17:25:20.429Z,79.32
2024-02-26T17:27:46.927Z,78.56
2024-02-26T17:30:13.683Z,78.86
2024-02-26T17:32:40.259Z,79.13
2024-02-26T17:35:07.938Z,79.10
2024-02-26T17:37:34.777Z,79.29
2024-02-26T17:40:01.271Z,79.01
2024-02-26T17:42:28.082Z,79.12
2024-02-26T17:44:54.794Z,78.98
2024-02-26T17:47:21.322Z,79.00
2024-02-26T17:49:47.914Z,79.38
2024-02-26T17:52:14.738Z,79.82
2024-02-26T17:54:41.272Z,79.71
2024-02-26T17:57:07.968Z,79.77
2024-02-26T17:59:34.438Z,79.84
2024-02-26T18:02:00.926Z,80.68
2024-02-26T18:04:27.537Z,80.48
2024-02-26T18:06:54.206Z,80.46
2024-02-26T18:09:20.778Z,80.43
2024-02-26T18:11:47.577Z,80.19
2024-02-26T18:14:14.154Z,80.57
2024-02-26T18:16:40.791Z,80.61
2024-02-26T18:19:07.431Z,80.78
2024-02-26T18:21:34.748Z,81.00
2024-02-26T18:24:01.410Z,80.61
2024-02-26T18:26:28.937Z,80.67
2024-02-26T18:28:55.421Z,80.50
2024-02-26T18:31:22.187Z,80.62
2024-02-26T18:33:49.047Z,80.28
2024-02-26T18:36:17.336Z,80.52
2024-02-26T18:38:44.370Z,80.44
2024-02-26T18:41:19.692Z,80.28
2024-02-26T18:43:46.710Z,80.81
2024-02-26T18:46:13.961Z,80.46
2024-02-26T18:48:40.785Z,80.84
2024-02-26T18:51:07.358Z,80.60
2024-02-26T18:53:33.913Z,80.83
2024-02-26T18:56:00.331Z,80.86
2024-02-26T18:58:26.866Z,81.01
2024-02-26T19:00:53.473Z,80.42
2024-02-26T19:03:37.502Z,80.54
2024-02-26T19:06:06.500Z,80.58
2024-02-26T19:08:33.044Z,81.13
2024-02-26T19:11:00.389Z,80.95
2024-02-26T19:13:27.305Z,81.00
2024-02-26T19:15:53.832Z,80.70
2024-02-26T19:18:20.468Z,80.73
2024-02-26T19:20:48.080Z,80.67
2024-02-26T19:23:14.901Z,81.04
2024-02-26T19:25:43.512Z,81.07
2024-02-26T19:28:10.210Z,80.68
2024-02-26T19:30:36.817Z,80.60
2024-02-26T19:33:04.609Z,80.52
2024-02-26T19:35:31.210Z,80.76
2024-02-26T19:37:57.779Z,80.52
2024-02-26T19:40:24.727Z,81.04
2024-02-26T19:42:51.168Z,80.83
2024-02-26T19:45:17.727Z,80.82
2024-02-26T19:47:44.379Z,80.23
2024-02-26T19:50:10.946Z,80.54
2024-02-26T19:52:37.586Z,80.45
2024-02-26T19:55:04.609Z,80.57
2024-02-26T19:57:31.568Z,79.93
2024-02-26T19:59:58.693Z,80.22
2024-02-26T20:02:25.664Z,80.48
2024-02-26T20:04:52.205Z,79.97
2024-02-26T20:07:21.526Z,80.88
2024-02-26T20:09:48.695Z,80.56
2024-02-26T20:12:15.812Z,80.42
2024-02-26T20:14:45.455Z,80.22
2024-02-26T20:17:12.060Z,79.92
2024-02-26T20:19:38.778Z,80.35
2024-02-26T20:22:05.472Z,80.44
2024-02-26T20:24:32.047Z,80.06
2024-02-26T20:27:01.676Z,79.98
2024-02-26T20:29:28.267Z,80.10
2024-02-26T20:31:54.768Z,80.27
2024-02-26T20:34:21.455Z,80.18
2024-02-26T20:36:48.151Z,80.54
2024-02-26T20:39:14.898Z,80.38
2024-02-26T20:41:41.906Z,80.39
2024-02-26T20:44:08.550Z,80.58
2024-02-26T20:46:35.108Z,80.21
2024-02-26T20:49:01.913Z,80.09
2024-02-26T20:51:30.235Z,80.88
2024-02-26T20:53:58.372Z,80.53
2024-02-26T20:56:25.102Z,80.56
2024-02-26T20:58:51.716Z,80.44
2024-02-26T21:01:18.617Z,80.37
2024-02-26T21:03:45.120Z,80.69
2024-02-26T21:06:11.732Z,80.53
2024-02-26T21:08:38.733Z,80.47
2024-02-26T21:11:06.431Z,80.29
2024-02-26T21:13:33.643Z,80.80
2024-02-26T21:16:00.920Z,80.51
2024-02-26T21:18:27.892Z,80.06
2024-02-26T21:20:55.559Z,80.75
2024-02-26T21:23:22.435Z,81.00
2024-02-26T21:25:48.976Z,80.31
2024-02-26T21:28:15.434Z,80.92
2024-02-26T21:30:42.008Z,80.77
2024-02-26T21:33:08.785Z,80.94
2024-02-26T21:35:35.504Z,80.60
2024-02-26T21:38:02.678Z,80.99
2024-02-26T21:40:29.162Z,81.50
2024-02-26T21:42:55.718Z,80.79
2024-02-26T21:45:24.585Z,81.15
2024-02-26T21:47:51.370Z,80.42
2024-02-26T21:50:17.946Z,81.09
2024-02-26T21:52:44.832Z,80.61
2024-02-26T21:55:14.217Z,80.97
2024-02-26T21:57:41.000Z,80.58
2024-02-26T22:00:08.212Z,80.72
2024-02-26T22:02:34.731Z,80.75
2024-02-26T22:05:01.959Z,80.61
2024-02-26T22:07:28.724Z,80.76
2024-02-26T22:09:55.409Z,81.08
2024-02-26T22:12:21.978Z,80.71
2024-02-26T22:14:48.865Z,80.73
2024-02-26T22:17:15.390Z,80.49
2024-02-26T22:19:42.017Z,80.68
2024-02-26T22:22:08.546Z,80.76
2024-02-26T22:24:36.290Z,80.12
2024-02-26T22:27:03.298Z,80.82
2024-02-26T22:29:30.708Z,80.78
2024-02-26T22:32:00.533Z,81.01
2024-02-26T22:34:28.048Z,80.61
2024-02-26T22:36:54.643Z,80.00
2024-02-26T22:39:22.888Z,80.18
2024-02-26T22:41:49.732Z,80.51
2024-02-26T22:44:16.543Z,79.95
2024-02-26T22:46:43.122Z,80.36
2024-02-26T22:49:09.679Z,79.87
2024-02-26T22:51:36.304Z,80.10
2024-02-26T22:54:03.401Z,80.62
2024-02-26T22:56:29.914Z,80.41
2024-02-26T22:58:56.435Z,80.60
2024-02-26T23:01:25.289Z,81.03
2024-02-26T23:03:52.122Z,80.85
2024-02-26T23:06:19.001Z,80.51
2024-02-26T23:08:45.548Z,81.11
2024-02-26T23:11:12.136Z,80.67
2024-02-26T23:13:39.853Z,80.87
2024-02-26T23:16:06.689Z,81.34
2024-02-26T23:18:33.320Z,80.97
2024-02-26T23:21:00.056Z,81.32
2024-02-26T23:23:26.671Z,80.85
2024-02-26T23:25:53.668Z,81.18
2024-02-26T23:28:20.245Z,81.48
2024-02-26T23:30:46.853Z,81.89
2024-02-26T23:33:13.621Z,81.46
2024-02-26T23:35:40.179Z,81.26
2024-02-26T23:38:06.961Z,81.44
2024-02-26T23:40:34.877Z,81.48
2024-02-26T23:43:02.569Z,81.90
2024-02-26T23:45:29.582Z,81.22
2024-02-26T23:47:56.329Z,81.72
2024-02-26T23:50:24.879Z,81.68
2024-02-26T23:52:52.177Z,81.72
2024-02-26T23:55:19.171Z,81.97
2024-02-26T23:57:45.683Z,81.41
